createdAt,value
2023-05-06T00:01:26.613Z,100.00
2023-05-06T00:03:55.037Z,100.00
2023-05-06T00:06:23.508Z,100.00
2023-05-06T00:08:51.402Z,100.00
2023-05-06T00:11:19.352Z,100.00
2023-05-06T00:13:47.449Z,100.00
2023-05-06T00:16:15.535Z,100.00
2023-05-06T00:18:43.675Z,100.00
2023-05-06T00:21:11.722Z,100.00
2023-05-06T00:23:39.759Z,100.00
2023-05-06T00:26:07.816Z,100.00
2023-05-06T00:28:35.891Z,100.00
2023-05-06T00:31:03.809Z,100.00
2023-05-06T00:33:31.841Z,100.00
2023-05-06T00:35:59.755Z,100.00
2023-05-06T00:38:28.184Z,100.00
2023-05-06T00:40:56.987Z,100.00
2023-05-06T00:43:26.581Z,100.00
2023-05-06T00:45:54.689Z,100.00
2023-05-06T00:48:23.047Z,100.00
2023-05-06T00:50:51.234Z,100.00
2023-05-06T00:53:21.176Z,100.00
2023-05-06T00:55:50.134Z,100.00
2023-05-06T00:58:20.689Z,100.00
2023-05-06T01:00:50.108Z,100.00
2023-05-06T01:03:18.924Z,100.00
2023-05-06T01:06:08.478Z,100.00
2023-05-06T01:08:48.074Z,100.00
2023-05-06T01:11:34.162Z,100.00
2023-05-06T01:14:11.243Z,100.00
2023-05-06T01:16:41.674Z,100.00
2023-05-06T01:19:27.889Z,100.00
2023-05-06T01:21:58.129Z,100.00
2023-05-06T01:24:38.252Z,100.00
2023-05-06T01:27:07.540Z,100.00
2023-05-06T01:29:37.305Z,100.00
2023-05-06T01:32:21.977Z,100.00
2023-05-06T01:35:00.059Z,100.00
2023-05-06T01:37:38.929Z,100.00
2023-05-06T01:40:09.451Z,100.00
2023-05-06T01:42:40.208Z,100.00
2023-05-06T01:45:10.243Z,100.00
2023-05-06T01:47:41.055Z,100.00
2023-05-06T01:50:10.113Z,100.00
2023-05-06T01:52:38.145Z,100.00
2023-05-06T01:55:08.098Z,100.00
2023-05-06T01:57:36.726Z,100.00
2023-05-06T02:00:05.951Z,100.00
2023-05-06T02:02:40.452Z,100.00
2023-05-06T02:05:09.824Z,100.00
2023-05-06T02:07:39.025Z,100.00
2023-05-06T02:10:08.942Z,100.00
2023-05-06T02:12:39.315Z,100.00
2023-05-06T02:15:08.572Z,100.00
2023-05-06T02:17:40.275Z,100.00
2023-05-06T02:20:11.500Z,100.00
2023-05-06T02:22:39.452Z,100.00
2023-05-06T02:25:09.306Z,100.00
2023-05-06T02:27:37.510Z,100.00
2023-05-06T02:30:06.845Z,100.00
2023-05-06T02:32:34.882Z,100.00
2023-05-06T02:35:03.680Z,100.00
2023-05-06T02:37:31.681Z,100.00
2023-05-06T02:40:02.956Z,100.00
2023-05-06T02:42:35.226Z,100.00
2023-05-06T02:45:03.813Z,100.00
2023-05-06T02:47:33.875Z,100.00
2023-05-06T02:50:02.275Z,100.00
2023-05-06T02:52:30.573Z,100.00
2023-05-06T02:54:58.789Z,100.00
2023-05-06T02:57:27.037Z,100.00
2023-05-06T02:59:54.945Z,100.00
2023-05-06T03:02:22.922Z,100.00
2023-05-06T03:04:51.915Z,100.00
2023-05-06T03:07:20.607Z,100.00
2023-05-06T03:09:49.443Z,100.00
2023-05-06T03:12:17.510Z,100.00
2023-05-06T03:14:45.587Z,100.00
2023-05-06T03:17:13.553Z,100.00
2023-05-06T03:19:41.665Z,100.00
2023-05-06T03:22:10.562Z,100.00
2023-05-06T03:24:41.507Z,100.00
2023-05-06T03:27:09.428Z,100.00
2023-05-06T03:29:37.734Z,100.00
2023-05-06T03:32:07.150Z,100.00
2023-05-06T03:34:40.243Z,100.00
2023-05-06T03:37:10.341Z,100.00
2023-05-06T03:39:39.030Z,100.00
2023-05-06T03:42:09.221Z,100.00
2023-05-06T03:44:38.512Z,100.00
2023-05-06T03:47:08.145Z,100.00
2023-05-06T03:49:36.791Z,100.00
2023-05-06T03:52:05.664Z,100.00
2023-05-06T03:54:34.191Z,100.00
2023-05-06T03:57:03.243Z,100.00
2023-05-06T03:59:32.278Z,100.00
2023-05-06T04:02:01.058Z,100.00
2023-05-06T04:04:30.044Z,100.00
2023-05-06T04:06:58.170Z,100.00
2023-05-06T04:09:26.230Z,100.00
2023-05-06T04:11:55.286Z,100.00
2023-05-06T04:14:23.395Z,100.00
2023-05-06T04:16:52.097Z,100.00
2023-05-06T04:19:21.339Z,100.00
2023-05-06T04:21:49.664Z,100.00
2023-05-06T04:24:18.739Z,100.00
2023-05-06T04:26:47.549Z,100.00
2023-05-06T04:29:16.064Z,100.00
2023-05-06T04:31:55.882Z,100.00
2023-05-06T04:34:25.350Z,100.00
2023-05-06T04:36:54.415Z,100.00
2023-05-06T04:39:39.476Z,100.00
2023-05-06T04:42:08.146Z,100.00
2023-05-06T04:44:44.546Z,100.00
2023-05-06T04:47:13.105Z,100.00
2023-05-06T04:49:42.775Z,100.00
2023-05-06T04:52:11.471Z,100.00
2023-05-06T04:54:39.723Z,100.00
2023-05-06T04:57:08.315Z,100.00
2023-05-06T04:59:36.987Z,100.00
2023-05-06T05:02:05.037Z,100.00
2023-05-06T05:04:33.227Z,100.00
2023-05-06T05:07:02.129Z,100.00
2023-05-06T05:09:32.662Z,100.00
2023-05-06T05:12:04.405Z,100.00
2023-05-06T05:14:35.045Z,100.00
2023-05-06T05:17:03.416Z,100.00
2023-05-06T05:19:31.480Z,100.00
2023-05-06T05:22:00.368Z,100.00
2023-05-06T05:24:28.346Z,100.00
2023-05-06T05:26:57.853Z,100.00
2023-05-06T05:29:26.056Z,100.00
2023-05-06T05:31:54.815Z,100.00
2023-05-06T05:34:22.985Z,100.00
2023-05-06T05:36:51.413Z,100.00
2023-05-06T05:39:20.060Z,100.00
2023-05-06T05:41:49.110Z,100.00
2023-05-06T05:44:17.539Z,100.00
2023-05-06T05:46:45.855Z,100.00
2023-05-06T05:49:16.275Z,100.00
2023-05-06T05:51:44.416Z,100.00
2023-05-06T05:54:15.043Z,100.00
2023-05-06T05:56:43.833Z,100.00
2023-05-06T05:59:12.718Z,100.00
2023-05-06T06:01:40.916Z,100.00
2023-05-06T06:04:10.043Z,100.00
2023-05-06T06:06:38.728Z,100.00
2023-05-06T06:09:07.702Z,100.00
2023-05-06T06:11:38.176Z,100.00
2023-05-06T06:14:07.195Z,100.00
2023-05-06T06:16:37.232Z,100.00
2023-05-06T06:19:05.542Z,100.00
2023-05-06T06:21:33.794Z,100.00
2023-05-06T06:24:02.321Z,100.00
2023-05-06T06:26:31.472Z,100.00
2023-05-06T06:29:00.875Z,100.00
2023-05-06T06:31:29.941Z,100.00
2023-05-06T06:33:58.068Z,100.00
2023-05-06T06:36:26.203Z,100.00
2023-05-06T06:38:54.173Z,100.00
2023-05-06T06:41:22.172Z,100.00
2023-05-06T06:43:50.228Z,100.00
2023-05-06T06:46:18.821Z,100.00
2023-05-06T06:48:46.974Z,100.00
2023-05-06T06:51:14.967Z,100.00
2023-05-06T06:53:43.317Z,100.00
2023-05-06T06:56:14.845Z,100.00
2023-05-06T06:58:43.005Z,100.00
2023-05-06T07:01:11.381Z,100.00
2023-05-06T07:03:39.569Z,100.00
2023-05-06T07:06:08.921Z,100.00
2023-05-06T07:08:37.183Z,100.00
2023-05-06T07:11:05.534Z,100.00
2023-05-06T07:13:33.680Z,100.00
2023-05-06T07:16:01.821Z,100.00
2023-05-06T07:18:30.201Z,100.00
2023-05-06T07:20:58.425Z,100.00
2023-05-06T07:23:26.992Z,100.00
2023-05-06T07:25:54.989Z,100.00
2023-05-06T07:28:23.024Z,100.00
2023-05-06T07:30:52.784Z,100.00
2023-05-06T07:33:20.858Z,100.00
2023-05-06T07:35:48.707Z,100.00
2023-05-06T07:38:17.143Z,100.00
2023-05-06T07:40:45.288Z,100.00
2023-05-06T07:43:13.367Z,100.00
2023-05-06T07:45:41.596Z,100.00
2023-05-06T07:48:10.140Z,95.36
2023-05-06T07:50:38.225Z,92.41
2023-05-06T07:53:06.135Z,84.35
2023-05-06T07:55:35.205Z,83.01
2023-05-06T07:58:03.564Z,76.26
2023-05-06T08:00:31.640Z,75.70
2023-05-06T08:02:59.948Z,77.49
2023-05-06T08:05:28.174Z,73.27
2023-05-06T08:07:56.291Z,71.53
2023-05-06T08:10:24.461Z,72.20
2023-05-06T08:12:52.788Z,70.92
2023-05-06T08:15:21.252Z,69.72
2023-05-06T08:17:49.413Z,72.47
2023-05-06T08:20:17.313Z,72.53
2023-05-06T08:22:45.502Z,70.39
2023-05-06T08:25:13.521Z,70.36
2023-05-06T08:27:41.882Z,73.79
2023-05-06T08:30:10.953Z,76.53
2023-05-06T08:32:39.887Z,73.31
2023-05-06T08:35:08.318Z,73.30
2023-05-06T08:37:36.555Z,67.63
2023-05-06T08:40:05.536Z,68.29
2023-05-06T08:42:38.290Z,72.76
2023-05-06T08:45:07.969Z,69.52
2023-05-06T08:47:36.889Z,65.05
2023-05-06T08:50:05.547Z,62.90
2023-05-06T08:52:34.668Z,61.51
2023-05-06T08:55:05.382Z,65.06
2023-05-06T08:57:34.703Z,67.99
2023-05-06T09:00:03.522Z,71.58
2023-05-06T09:02:31.813Z,70.50
2023-05-06T09:05:00.954Z,71.16
2023-05-06T09:07:29.181Z,77.16
2023-05-06T09:09:57.260Z,82.48
2023-05-06T09:12:25.932Z,86.58
2023-05-06T09:14:55.865Z,81.03
2023-05-06T09:17:24.578Z,81.35
2023-05-06T09:19:54.399Z,82.52
2023-05-06T09:22:30.149Z,85.44
2023-05-06T09:24:59.103Z,86.11
2023-05-06T09:27:29.181Z,89.11
2023-05-06T09:30:09.159Z,91.47
2023-05-06T09:32:40.234Z,91.22
2023-05-06T09:35:10.841Z,90.73
2023-05-06T09:37:39.775Z,91.12
2023-05-06T09:40:09.577Z,89.28
2023-05-06T09:42:38.239Z,88.68
2023-05-06T09:45:09.149Z,86.93
2023-05-06T09:47:38.428Z,86.21
2023-05-06T09:50:09.356Z,88.22
2023-05-06T09:52:37.704Z,90.58
2023-05-06T09:55:07.611Z,87.77
2023-05-06T09:57:37.151Z,88.64
2023-05-06T10:00:09.601Z,88.89
2023-05-06T10:02:41.941Z,88.58
2023-05-06T10:05:13.382Z,86.04
2023-05-06T10:07:42.509Z,87.39
2023-05-06T10:10:12.430Z,88.28
2023-05-06T10:12:41.102Z,88.96
2023-05-06T10:15:10.122Z,89.96
2023-05-06T10:17:41.973Z,89.29
2023-05-06T10:20:14.035Z,92.55
2023-05-06T10:23:01.824Z,94.49
2023-05-06T10:25:40.196Z,90.15
2023-05-06T10:28:23.149Z,91.18
2023-05-06T10:30:59.175Z,84.66
2023-05-06T10:33:28.856Z,81.19
2023-05-06T10:36:16.552Z,79.00
2023-05-06T10:38:47.542Z,83.69
2023-05-06T10:41:17.151Z,80.18
2023-05-06T10:43:45.591Z,79.64
2023-05-06T10:46:18.540Z,80.86
2023-05-06T10:49:04.965Z,74.59
2023-05-06T10:51:34.985Z,70.79
2023-05-06T10:54:09.191Z,71.74
2023-05-06T10:56:58.430Z,70.92
2023-05-06T10:59:31.235Z,69.16
2023-05-06T11:02:02.544Z,69.73
2023-05-06T11:04:31.593Z,67.02
2023-05-06T11:07:11.180Z,67.55
2023-05-06T11:10:06.455Z,65.76
2023-05-06T11:12:52.895Z,64.01
2023-05-06T11:15:41.320Z,61.93
2023-05-06T11:18:34.397Z,63.56
2023-05-06T11:21:07.634Z,60.73
2023-05-06T11:23:42.147Z,63.08
2023-05-06T11:26:11.893Z,63.90
2023-05-06T11:28:43.428Z,62.76
2023-05-06T11:31:13.565Z,60.26
2023-05-06T11:33:49.820Z,58.59
2023-05-06T11:36:19.964Z,58.94
2023-05-06T11:38:50.084Z,61.16
2023-05-06T11:41:19.378Z,58.73
2023-05-06T11:43:50.208Z,60.73
2023-05-06T11:46:19.854Z,61.68
2023-05-06T11:48:48.671Z,63.30
2023-05-06T11:51:24.928Z,61.59
2023-05-06T11:54:03.891Z,61.83
2023-05-06T11:56:52.069Z,58.42
2023-05-06T11:59:34.374Z,57.19
2023-05-06T12:02:08.695Z,56.76
2023-05-06T12:04:41.606Z,56.74
2023-05-06T12:07:12.373Z,59.56
2023-05-06T12:09:46.730Z,56.58
2023-05-06T12:12:22.782Z,57.06
2023-05-06T12:14:53.529Z,58.32
2023-05-06T12:17:22.245Z,56.66
2023-05-06T12:19:50.996Z,57.71
2023-05-06T12:22:22.833Z,57.08
2023-05-06T12:24:51.184Z,53.60
2023-05-06T12:27:33.366Z,55.59
2023-05-06T12:30:04.648Z,52.05
2023-05-06T12:32:33.248Z,49.65
2023-05-06T12:35:06.038Z,47.88
2023-05-06T12:37:34.205Z,48.61
2023-05-06T12:40:02.460Z,47.44
2023-05-06T12:42:30.706Z,49.55
2023-05-06T12:45:12.940Z,50.87
2023-05-06T12:47:52.999Z,48.54
2023-05-06T12:50:36.413Z,45.96
2023-05-06T12:53:05.946Z,46.39
2023-05-06T12:55:37.679Z,45.89
2023-05-06T12:58:16.702Z,45.01
2023-05-06T13:00:45.223Z,43.90
2023-05-06T13:03:13.960Z,43.75
2023-05-06T13:05:42.163Z,44.60
2023-05-06T13:08:10.151Z,46.50
2023-05-06T13:10:38.387Z,46.34
2023-05-06T13:13:07.071Z,47.93
2023-05-06T13:15:35.242Z,50.26
2023-05-06T13:18:03.673Z,51.75
2023-05-06T13:20:32.480Z,49.52
2023-05-06T13:23:00.757Z,48.48
2023-05-06T13:25:29.017Z,46.94
2023-05-06T13:27:57.156Z,47.13
2023-05-06T13:30:25.353Z,48.07
2023-05-06T13:32:53.689Z,48.58
2023-05-06T13:35:22.022Z,50.92
2023-05-06T13:37:50.178Z,50.91
2023-05-06T13:40:18.479Z,52.15
2023-05-06T13:42:46.412Z,53.10
2023-05-06T13:45:14.599Z,55.51
2023-05-06T13:47:43.335Z,54.88
2023-05-06T13:50:12.084Z,53.44
2023-05-06T13:52:40.554Z,56.06
2023-05-06T13:55:09.241Z,57.56
2023-05-06T13:57:37.549Z,57.33
2023-05-06T14:00:07.585Z,54.27
2023-05-06T14:02:36.470Z,51.47
2023-05-06T14:05:06.086Z,51.36
2023-05-06T14:07:34.262Z,49.93
2023-05-06T14:10:02.731Z,47.60
2023-05-06T14:12:31.055Z,48.97
2023-05-06T14:14:59.064Z,49.27
2023-05-06T14:17:27.219Z,48.50
2023-05-06T14:19:55.249Z,48.15
2023-05-06T14:22:23.542Z,48.57
2023-05-06T14:24:51.542Z,48.94
2023-05-06T14:27:19.631Z,50.15
2023-05-06T14:29:47.591Z,50.94
2023-05-06T14:32:15.965Z,52.08
2023-05-06T14:34:44.238Z,51.85
2023-05-06T14:37:12.252Z,53.73
2023-05-06T14:39:40.438Z,56.68
2023-05-06T14:42:09.931Z,59.77
2023-05-06T14:44:38.024Z,59.04
2023-05-06T14:47:06.869Z,60.56
2023-05-06T14:49:35.453Z,62.39
2023-05-06T14:52:03.738Z,63.24
2023-05-06T14:54:31.947Z,62.69
2023-05-06T14:57:03.211Z,63.81
2023-05-06T14:59:31.286Z,67.93
2023-05-06T15:01:59.331Z,68.49
2023-05-06T15:04:27.763Z,65.53
2023-05-06T15:06:58.133Z,65.21
2023-05-06T15:09:26.892Z,65.01
2023-05-06T15:11:55.067Z,68.35
2023-05-06T15:14:23.245Z,71.83
2023-05-06T15:16:55.161Z,70.24
2023-05-06T15:19:23.427Z,72.97
2023-05-06T15:21:51.579Z,73.75
2023-05-06T15:24:19.674Z,77.66
2023-05-06T15:26:47.808Z,80.94
2023-05-06T15:29:17.831Z,83.42
2023-05-06T15:31:46.261Z,85.99
2023-05-06T15:34:14.745Z,87.11
2023-05-06T15:36:42.837Z,84.17
2023-05-06T15:39:10.953Z,85.55
2023-05-06T15:41:39.100Z,84.14
2023-05-06T15:44:07.309Z,84.06
2023-05-06T15:46:35.655Z,83.74
2023-05-06T15:49:31.971Z,83.28
2023-05-06T15:51:52.367Z,84.16
2023-05-06T15:54:20.652Z,85.89
2023-05-06T15:56:48.939Z,88.79
2023-05-06T15:59:17.040Z,90.67
2023-05-06T16:04:17.424Z,92.62
2023-05-06T16:06:45.728Z,93.57
2023-05-06T16:09:13.847Z,96.43
2023-05-06T16:11:41.895Z,99.06
2023-05-06T16:14:09.938Z,100.00
2023-05-06T16:16:38.304Z,100.00
2023-05-06T16:19:07.646Z,100.00
2023-05-06T16:21:35.686Z,100.00
2023-05-06T16:24:03.757Z,100.00
2023-05-06T16:26:31.612Z,100.00
2023-05-06T16:29:01.590Z,100.00
2023-05-06T16:31:29.925Z,100.00
2023-05-06T16:33:58.023Z,100.00
2023-05-06T16:36:28.727Z,100.00
2023-05-06T16:38:56.954Z,100.00
2023-05-06T16:41:25.112Z,100.00
2023-05-06T16:43:54.283Z,100.00
2023-05-06T16:46:24.240Z,100.00
2023-05-06T16:48:53.806Z,100.00
2023-05-06T16:51:21.964Z,100.00
2023-05-06T16:53:50.040Z,100.00
2023-05-06T16:56:18.463Z,100.00
2023-05-06T16:58:46.456Z,100.00
2023-05-06T17:01:14.611Z,100.00
2023-05-06T17:03:43.467Z,100.00
2023-05-06T17:06:11.697Z,100.00
2023-05-06T17:08:39.678Z,100.00
2023-05-06T17:11:07.727Z,100.00
2023-05-06T17:13:35.721Z,100.00
2023-05-06T17:16:03.952Z,100.00
2023-05-06T17:18:32.067Z,100.00
2023-05-06T17:21:00.057Z,100.00
2023-05-06T17:23:28.037Z,100.00
2023-05-06T17:25:56.924Z,100.00
2023-05-06T17:28:25.146Z,100.00
2023-05-06T17:30:53.203Z,100.00
2023-05-06T17:33:22.302Z,100.00
2023-05-06T17:35:50.623Z,100.00
2023-05-06T17:38:18.805Z,100.00
2023-05-06T17:40:47.232Z,100.00
2023-05-06T17:43:15.451Z,100.00
2023-05-06T17:45:43.547Z,100.00
2023-05-06T17:48:11.676Z,100.00
2023-05-06T17:50:40.012Z,100.00
2023-05-06T17:53:08.219Z,100.00
2023-05-06T17:55:36.481Z,100.00
2023-05-06T17:58:04.491Z,100.00
2023-05-06T18:00:32.383Z,100.00
2023-05-06T18:03:00.482Z,100.00
2023-05-06T18:05:28.619Z,100.00
2023-05-06T18:07:56.832Z,100.00
2023-05-06T18:10:24.866Z,100.00
2023-05-06T18:12:53.132Z,100.00
2023-05-06T18:15:21.182Z,100.00
2023-05-06T18:17:50.001Z,100.00
2023-05-06T18:20:18.347Z,100.00
2023-05-06T18:22:46.636Z,100.00
2023-05-06T18:25:14.921Z,100.00
2023-05-06T18:27:43.740Z,100.00
2023-05-06T18:30:12.321Z,100.00
2023-05-06T18:32:40.445Z,100.00
2023-05-06T18:35:11.187Z,100.00
2023-05-06T18:37:39.646Z,100.00
2023-05-06T18:40:09.260Z,100.00
2023-05-06T18:42:37.279Z,100.00
2023-05-06T18:45:07.174Z,100.00
2023-05-06T18:47:37.143Z,100.00
2023-05-06T18:50:06.745Z,100.00
2023-05-06T18:52:36.238Z,100.00
2023-05-06T18:55:05.633Z,100.00
2023-05-06T18:57:33.614Z,100.00
2023-05-06T19:00:01.731Z,100.00
2023-05-06T19:02:29.821Z,100.00
2023-05-06T19:04:58.366Z,100.00
2023-05-06T19:07:26.330Z,100.00
2023-05-06T19:09:55.085Z,100.00
2023-05-06T19:12:23.523Z,100.00
2023-05-06T19:14:51.612Z,100.00
2023-05-06T19:17:19.632Z,100.00
2023-05-06T19:19:49.025Z,100.00
2023-05-06T19:22:17.037Z,100.00
2023-05-06T19:24:45.156Z,100.00
2023-05-06T19:27:13.229Z,100.00
2023-05-06T19:29:41.560Z,100.00
2023-05-06T19:32:09.475Z,100.00
2023-05-06T19:34:37.593Z,100.00
2023-05-06T19:37:05.628Z,100.00
2023-05-06T19:39:33.608Z,100.00
2023-05-06T19:42:01.792Z,100.00
2023-05-06T19:44:30.050Z,100.00
2023-05-06T19:46:58.174Z,100.00
2023-05-06T19:49:26.079Z,100.00
2023-05-06T19:51:54.050Z,100.00
2023-05-06T19:54:22.511Z,100.00
2023-05-06T19:56:50.584Z,100.00
2023-05-06T19:59:18.554Z,100.00
2023-05-06T20:01:46.655Z,100.00
2023-05-06T20:04:15.076Z,100.00
2023-05-06T20:06:42.975Z,100.00
2023-05-06T20:09:11.045Z,100.00
2023-05-06T20:11:40.003Z,100.00
2023-05-06T20:14:08.150Z,100.00
2023-05-06T20:16:36.206Z,100.00
2023-05-06T20:19:04.533Z,100.00
2023-05-06T20:21:32.596Z,100.00
2023-05-06T20:24:00.885Z,100.00
2023-05-06T20:26:28.816Z,100.00
2023-05-06T20:28:56.685Z,100.00
2023-05-06T20:31:24.661Z,100.00
2023-05-06T20:33:52.661Z,100.00
2023-05-06T20:36:21.262Z,100.00
2023-05-06T20:38:50.430Z,100.00
2023-05-06T20:41:18.502Z,100.00
2023-05-06T20:43:46.492Z,100.00
2023-05-06T20:46:14.544Z,100.00
2023-05-06T20:48:42.591Z,100.00
2023-05-06T20:51:10.836Z,100.00
2023-05-06T20:53:39.989Z,100.00
2023-05-06T20:56:17.517Z,100.00
2023-05-06T20:58:45.572Z,100.00
2023-05-06T21:01:15.296Z,100.00
2023-05-06T21:03:46.387Z,100.00
2023-05-06T21:06:16.221Z,100.00
2023-05-06T21:08:45.707Z,100.00
2023-05-06T21:11:13.887Z,100.00
2023-05-06T21:13:42.096Z,100.00
2023-05-06T21:16:10.162Z,100.00
2023-05-06T21:18:38.275Z,100.00
2023-05-06T21:21:06.582Z,100.00
2023-05-06T21:23:35.708Z,100.00
2023-05-06T21:26:03.732Z,100.00
2023-05-06T21:28:31.774Z,100.00
2023-05-06T21:30:59.778Z,100.00
2023-05-06T21:33:27.905Z,100.00
2023-05-06T21:35:55.951Z,100.00
2023-05-06T21:38:24.111Z,100.00
2023-05-06T21:40:52.152Z,100.00
2023-05-06T21:43:20.198Z,100.00
2023-05-06T21:45:48.135Z,100.00
2023-05-06T21:48:16.280Z,100.00
2023-05-06T21:50:44.451Z,100.00
2023-05-06T21:53:12.644Z,100.00
2023-05-06T21:55:40.776Z,100.00
2023-05-06T21:58:08.943Z,100.00
2023-05-06T22:00:37.059Z,100.00
2023-05-06T22:03:05.180Z,100.00
2023-05-06T22:05:33.607Z,100.00
2023-05-06T22:08:02.217Z,100.00
2023-05-06T22:10:30.637Z,100.00
2023-05-06T22:12:58.740Z,100.00
2023-05-06T22:15:26.953Z,100.00
2023-05-06T22:17:55.411Z,100.00
2023-05-06T22:20:23.996Z,100.00
2023-05-06T22:22:52.661Z,100.00
2023-05-06T22:25:20.937Z,100.00
2023-05-06T22:27:49.008Z,100.00
2023-05-06T22:30:17.435Z,100.00
2023-05-06T22:32:45.566Z,100.00
2023-05-06T22:35:13.925Z,100.00
2023-05-06T22:37:42.035Z,100.00
2023-05-06T22:40:11.186Z,100.00
2023-05-06T22:42:39.233Z,100.00
2023-05-06T22:45:08.875Z,100.00
2023-05-06T22:47:37.209Z,100.00
2023-05-06T22:50:06.900Z,100.00
2023-05-06T22:52:35.097Z,100.00
2023-05-06T22:55:03.246Z,100.00
2023-05-06T22:57:31.577Z,100.00
2023-05-06T22:59:59.753Z,100.00
2023-05-06T23:02:28.649Z,100.00
2023-05-06T23:04:56.740Z,100.00
2023-05-06T23:07:24.914Z,100.00
2023-05-06T23:09:52.951Z,100.00
2023-05-06T23:12:20.913Z,100.00
2023-05-06T23:14:48.820Z,100.00
2023-05-06T23:17:16.857Z,100.00
2023-05-06T23:19:45.925Z,100.00
2023-05-06T23:22:14.161Z,100.00
2023-05-06T23:24:42.447Z,100.00
2023-05-06T23:27:10.668Z,100.00
2023-05-06T23:29:38.701Z,100.00
2023-05-06T23:32:07.147Z,100.00
2023-05-06T23:34:35.261Z,100.00
2023-05-06T23:37:03.211Z,100.00
2023-05-06T23:39:31.153Z,100.00
2023-05-06T23:42:01.218Z,100.00
2023-05-06T23:44:29.218Z,100.00
2023-05-06T23:46:57.439Z,100.00
2023-05-06T23:49:25.349Z,100.00
2023-05-06T23:51:53.542Z,100.00
2023-05-06T23:54:21.667Z,100.00
2023-05-06T23:56:50.095Z,100.00
2023-05-06T23:59:18.478Z,100.00
